createdAt,value
2023-05-13T00:00:17.593Z,60.80
2023-05-13T00:02:44.356Z,60.80
2023-05-13T00:05:12.460Z,61.00
2023-05-13T00:07:39.128Z,61.20
2023-05-13T00:10:07.414Z,61.10
2023-05-13T00:12:35.331Z,61.20
2023-05-13T00:15:06.371Z,61.20
2023-05-13T00:17:36.584Z,61.30
2023-05-13T00:20:08.577Z,61.40
2023-05-13T00:22:35.810Z,61.50
2023-05-13T00:25:02.453Z,61.60
2023-05-13T00:27:29.148Z,61.60
2023-05-13T00:29:55.809Z,61.70
2023-05-13T00:32:22.515Z,61.80
2023-05-13T00:34:49.210Z,61.80
2023-05-13T00:37:15.909Z,62.00
2023-05-13T00:39:42.635Z,62.00
2023-05-13T00:42:09.460Z,62.20
2023-05-13T00:44:36.124Z,62.30
2023-05-13T00:47:02.867Z,62.20
2023-05-13T00:49:29.626Z,62.20
2023-05-13T00:51:56.757Z,62.90
2023-05-13T00:54:23.399Z,63.30
2023-05-13T00:56:50.091Z,62.60
2023-05-13T00:59:16.782Z,62.50
2023-05-13T01:02:17.982Z,62.50
2023-05-13T01:04:55.672Z,62.90
2023-05-13T01:08:07.385Z,63.00
2023-05-13T01:10:51.303Z,63.50
2023-05-13T01:13:24.870Z,63.30
2023-05-13T01:15:58.367Z,63.90
2023-05-13T01:18:36.336Z,63.80
2023-05-13T01:21:05.122Z,63.60
2023-05-13T01:23:31.858Z,63.40
2023-05-13T01:25:58.541Z,63.30
2023-05-13T01:28:25.366Z,63.60
2023-05-13T01:30:52.262Z,63.50
2023-05-13T01:33:19.248Z,63.40
2023-05-13T01:35:48.140Z,63.40
2023-05-13T01:38:19.804Z,63.50
2023-05-13T01:40:49.103Z,63.50
2023-05-13T01:43:16.236Z,63.70
2023-05-13T01:45:43.137Z,64.10
2023-05-13T01:48:09.818Z,63.70
2023-05-13T01:50:36.501Z,63.80
2023-05-13T01:53:03.501Z,64.10
2023-05-13T01:55:30.233Z,64.20
2023-05-13T01:57:56.891Z,64.20
2023-05-13T02:00:23.823Z,64.20
2023-05-13T02:02:51.959Z,64.30
2023-05-13T02:05:18.772Z,64.50
2023-05-13T02:07:47.237Z,64.50
2023-05-13T02:10:13.964Z,65.30
2023-05-13T02:12:41.656Z,64.80
2023-05-13T02:15:08.728Z,64.80
2023-05-13T02:17:36.605Z,65.20
2023-05-13T02:20:03.644Z,65.20
2023-05-13T02:22:32.407Z,65.40
2023-05-13T02:25:01.371Z,65.40
2023-05-13T02:27:29.297Z,65.60
2023-05-13T02:29:59.622Z,65.80
2023-05-13T02:32:28.472Z,65.60
2023-05-13T02:34:55.151Z,65.60
2023-05-13T02:37:21.782Z,65.50
2023-05-13T02:39:48.446Z,65.30
2023-05-13T02:42:15.073Z,65.50
2023-05-13T02:44:41.718Z,65.50
2023-05-13T02:47:08.416Z,65.60
2023-05-13T02:49:35.099Z,65.90
2023-05-13T02:52:01.772Z,65.60
2023-05-13T02:54:28.759Z,65.90
2023-05-13T02:56:55.388Z,65.80
2023-05-13T02:59:22.051Z,66.10
2023-05-13T03:01:50.093Z,66.10
2023-05-13T03:04:21.110Z,65.80
2023-05-13T03:06:50.937Z,66.00
2023-05-13T03:09:19.186Z,66.10
2023-05-13T03:11:46.180Z,66.20
2023-05-13T03:14:12.854Z,66.50
2023-05-13T03:16:39.528Z,66.40
2023-05-13T03:19:06.272Z,66.40
2023-05-13T03:21:33.008Z,66.70
2023-05-13T03:23:59.675Z,66.60
2023-05-13T03:26:26.406Z,66.80
2023-05-13T03:28:53.110Z,66.80
2023-05-13T03:31:20.878Z,66.90
2023-05-13T03:33:47.556Z,66.90
2023-05-13T03:36:17.839Z,66.90
2023-05-13T03:38:45.550Z,67.00
2023-05-13T03:41:15.824Z,67.10
2023-05-13T03:43:44.165Z,67.30
2023-05-13T03:46:11.399Z,67.50
2023-05-13T03:48:38.360Z,67.50
2023-05-13T03:51:05.050Z,67.40
2023-05-13T03:53:31.781Z,67.40
2023-05-13T03:55:58.438Z,67.40
2023-05-13T03:58:25.144Z,67.60
2023-05-13T04:00:51.813Z,67.50
2023-05-13T04:03:18.601Z,67.50
2023-05-13T04:05:49.179Z,67.50
2023-05-13T04:08:17.257Z,67.60
2023-05-13T04:10:44.151Z,67.40
2023-05-13T04:13:12.054Z,67.30
2023-05-13T04:15:38.715Z,67.50
2023-05-13T04:18:06.769Z,67.70
2023-05-13T04:20:33.593Z,67.70
2023-05-13T04:23:04.233Z,67.80
2023-05-13T04:25:31.043Z,68.20
2023-05-13T04:27:59.175Z,68.30
2023-05-13T04:30:26.114Z,68.10
2023-05-13T04:32:52.867Z,68.10
2023-05-13T04:35:19.861Z,68.00
2023-05-13T04:37:49.028Z,67.80
2023-05-13T04:40:16.000Z,67.80
2023-05-13T04:42:42.718Z,67.90
2023-05-13T04:45:09.869Z,67.80
2023-05-13T04:47:36.625Z,67.80
2023-05-13T04:50:03.769Z,67.90
2023-05-13T04:52:31.271Z,67.90
2023-05-13T04:54:58.016Z,67.80
2023-05-13T04:57:24.732Z,67.80
2023-05-13T04:59:54.366Z,67.80
2023-05-13T05:02:22.413Z,67.40
2023-05-13T05:04:50.690Z,67.50
2023-05-13T05:07:18.877Z,67.60
2023-05-13T05:09:47.663Z,67.70
2023-05-13T05:12:14.573Z,67.50
2023-05-13T05:14:41.505Z,67.20
2023-05-13T05:17:08.377Z,67.20
2023-05-13T05:19:35.149Z,67.20
2023-05-13T05:22:02.076Z,66.70
2023-05-13T05:24:29.000Z,66.50
2023-05-13T05:26:55.933Z,65.80
2023-05-13T05:29:22.933Z,65.70
2023-05-13T05:31:49.665Z,65.50
2023-05-13T05:34:18.047Z,65.60
2023-05-13T05:36:46.064Z,65.20
2023-05-13T05:39:13.846Z,65.10
2023-05-13T05:41:41.804Z,65.30
2023-05-13T05:44:10.427Z,65.00
2023-05-13T05:46:38.374Z,65.00
2023-05-13T05:49:05.910Z,64.70
2023-05-13T05:51:34.130Z,64.40
2023-05-13T05:54:04.351Z,64.20
2023-05-13T05:56:36.867Z,64.20
2023-05-13T05:59:07.129Z,63.90
2023-05-13T06:01:37.174Z,64.00
2023-05-13T06:04:04.692Z,63.80
2023-05-13T06:06:31.460Z,63.70
2023-05-13T06:08:58.152Z,63.50
2023-05-13T06:11:24.916Z,63.30
2023-05-13T06:13:51.602Z,63.20
2023-05-13T06:16:18.374Z,63.10
2023-05-13T06:18:45.123Z,63.30
2023-05-13T06:21:11.868Z,63.50
2023-05-13T06:23:38.639Z,63.10
2023-05-13T06:26:05.378Z,62.80
2023-05-13T06:28:32.050Z,62.70
2023-05-13T06:30:58.827Z,62.60
2023-05-13T06:33:25.651Z,62.70
2023-05-13T06:35:52.847Z,62.50
2023-05-13T06:38:21.106Z,62.30
2023-05-13T06:40:47.867Z,62.40
2023-05-13T06:43:16.081Z,62.40
2023-05-13T06:45:43.090Z,62.50
2023-05-13T06:48:20.459Z,61.70
2023-05-13T06:50:48.470Z,61.80
2023-05-13T06:53:16.231Z,61.70
2023-05-13T06:55:45.523Z,62.50
2023-05-13T06:58:12.419Z,61.90
2023-05-13T07:00:40.741Z,61.70
2023-05-13T07:03:07.840Z,61.20
2023-05-13T07:05:35.092Z,61.30
2023-05-13T07:08:02.313Z,61.20
2023-05-13T07:10:28.977Z,61.10
2023-05-13T07:12:55.756Z,60.90
2023-05-13T07:15:22.592Z,60.20
2023-05-13T07:17:49.591Z,60.30
2023-05-13T07:20:16.418Z,60.80
2023-05-13T07:22:43.087Z,60.60
2023-05-13T07:25:11.002Z,60.60
2023-05-13T07:27:37.679Z,60.90
2023-05-13T07:30:06.740Z,60.50
2023-05-13T07:32:33.552Z,59.60
2023-05-13T07:35:01.728Z,59.50
2023-05-13T07:37:30.017Z,59.50
2023-05-13T07:39:56.917Z,59.10
2023-05-13T07:42:24.176Z,56.60
2023-05-13T07:44:50.903Z,56.10
2023-05-13T07:47:17.722Z,56.20
2023-05-13T07:49:44.538Z,55.60
2023-05-13T07:52:11.281Z,55.70
2023-05-13T07:54:38.144Z,55.90
2023-05-13T07:57:05.016Z,55.60
2023-05-13T07:59:31.715Z,55.10
2023-05-13T08:01:58.586Z,55.30
2023-05-13T08:04:25.915Z,55.00
2023-05-13T08:06:52.879Z,55.10
2023-05-13T08:09:19.698Z,55.10
2023-05-13T08:11:47.757Z,55.20
2023-05-13T08:14:15.856Z,55.60
2023-05-13T08:16:45.871Z,55.60
2023-05-13T08:19:14.776Z,55.40
2023-05-13T08:21:54.255Z,55.50
2023-05-13T08:24:21.001Z,55.70
2023-05-13T08:26:49.081Z,56.00
2023-05-13T08:29:17.343Z,56.20
2023-05-13T08:31:46.285Z,55.90
2023-05-13T08:34:17.681Z,56.00
2023-05-13T08:36:46.435Z,56.00
2023-05-13T08:39:13.251Z,56.00
2023-05-13T08:41:41.941Z,55.40
2023-05-13T08:44:11.603Z,55.40
2023-05-13T08:46:40.432Z,55.20
2023-05-13T08:49:08.862Z,55.30
2023-05-13T08:51:35.729Z,55.30
2023-05-13T08:54:03.754Z,55.20
2023-05-13T08:56:30.482Z,55.40
2023-05-13T08:58:57.330Z,55.40
2023-05-13T09:01:26.349Z,55.10
2023-05-13T09:03:58.862Z,54.60
2023-05-13T09:06:26.045Z,54.30
2023-05-13T09:08:53.468Z,53.90
2023-05-13T09:11:21.885Z,53.70
2023-05-13T09:14:03.003Z,53.60
2023-05-13T09:16:30.016Z,53.50
2023-05-13T09:19:02.813Z,53.80
2023-05-13T09:21:31.683Z,53.60
2023-05-13T09:24:10.974Z,53.40
2023-05-13T09:26:38.312Z,53.00
2023-05-13T09:29:18.769Z,53.00
2023-05-13T09:31:48.112Z,53.20
2023-05-13T09:34:15.752Z,52.60
2023-05-13T09:36:44.256Z,52.40
2023-05-13T09:39:15.646Z,52.00
2023-05-13T09:41:43.669Z,52.20
2023-05-13T09:44:10.786Z,52.60
2023-05-13T09:46:38.844Z,52.40
2023-05-13T09:49:05.808Z,52.00
2023-05-13T09:51:38.149Z,51.80
2023-05-13T09:54:09.524Z,50.70
2023-05-13T09:56:40.653Z,50.00
2023-05-13T09:59:07.677Z,48.90
2023-05-13T10:01:35.872Z,48.70
2023-05-13T10:04:03.120Z,48.70
2023-05-13T10:06:30.797Z,49.00
2023-05-13T10:09:00.349Z,48.70
2023-05-13T10:11:29.594Z,49.00
2023-05-13T10:14:00.866Z,49.40
2023-05-13T10:16:28.138Z,49.20
2023-05-13T10:18:56.811Z,49.10
2023-05-13T10:21:25.294Z,49.70
2023-05-13T10:23:53.067Z,50.00
2023-05-13T10:26:24.267Z,49.70
2023-05-13T10:28:51.715Z,48.70
2023-05-13T10:31:20.562Z,48.90
2023-05-13T10:33:49.079Z,49.90
2023-05-13T10:37:04.190Z,47.90
2023-05-13T10:39:52.444Z,48.10
2023-05-13T10:42:42.168Z,48.00
2023-05-13T10:45:10.877Z,48.70
2023-05-13T10:47:38.708Z,48.50
2023-05-13T10:50:36.097Z,48.20
2023-05-13T10:53:08.391Z,48.80
2023-05-13T10:55:44.369Z,49.60
2023-05-13T10:58:14.227Z,47.30
2023-05-13T11:00:45.349Z,47.40
2023-05-13T11:03:18.447Z,46.50
2023-05-13T11:06:09.320Z,46.50
2023-05-13T11:08:43.329Z,46.80
2023-05-13T11:11:33.724Z,46.80
2023-05-13T11:14:20.817Z,45.70
2023-05-13T11:17:03.167Z,45.10
2023-05-13T11:19:46.807Z,45.60
2023-05-13T11:22:21.080Z,46.20
2023-05-13T11:25:07.842Z,45.00
2023-05-13T11:27:42.362Z,45.60
2023-05-13T11:30:29.360Z,45.50
2023-05-13T11:32:58.225Z,45.10
2023-05-13T11:35:29.331Z,45.10
2023-05-13T11:37:59.860Z,44.60
2023-05-13T11:40:28.255Z,44.80
2023-05-13T11:42:55.303Z,44.70
2023-05-13T11:45:24.796Z,44.70
2023-05-13T11:47:53.377Z,44.00
2023-05-13T11:50:28.038Z,44.30
2023-05-13T11:52:57.266Z,44.50
2023-05-13T11:55:34.695Z,44.30
2023-05-13T11:58:04.738Z,44.10
2023-05-13T12:00:33.261Z,44.10
2023-05-13T12:03:03.329Z,43.90
2023-05-13T12:05:32.407Z,43.40
2023-05-13T12:08:01.846Z,43.00
2023-05-13T12:10:28.591Z,42.70
2023-05-13T12:12:59.308Z,42.40
2023-05-13T12:15:28.591Z,42.70
2023-05-13T12:17:55.633Z,41.70
2023-05-13T12:20:29.719Z,41.60
2023-05-13T12:22:56.568Z,41.30
2023-05-13T12:25:45.487Z,41.30
2023-05-13T12:28:25.008Z,41.10
2023-05-13T12:31:01.637Z,41.50
2023-05-13T12:33:42.337Z,40.80
2023-05-13T12:36:19.776Z,40.80
2023-05-13T12:39:08.034Z,40.90
2023-05-13T12:41:36.997Z,39.90
2023-05-13T12:44:30.737Z,40.30
2023-05-13T12:46:58.605Z,40.50
2023-05-13T12:49:25.302Z,40.50
2023-05-13T12:51:52.024Z,40.30
2023-05-13T12:54:18.801Z,40.20
2023-05-13T12:56:45.625Z,40.10
2023-05-13T12:59:12.301Z,39.30
2023-05-13T13:01:38.966Z,40.10
2023-05-13T13:04:06.001Z,39.90
2023-05-13T13:06:32.879Z,40.00
2023-05-13T13:08:59.647Z,40.10
2023-05-13T13:11:26.390Z,40.10
2023-05-13T13:13:53.072Z,40.30
2023-05-13T13:16:19.961Z,40.00
2023-05-13T13:18:53.100Z,39.90
2023-05-13T13:21:20.851Z,39.90
2023-05-13T13:23:51.233Z,39.90
2023-05-13T13:26:17.874Z,39.80
2023-05-13T13:28:48.032Z,40.00
2023-05-13T13:31:15.793Z,39.90
2023-05-13T13:33:42.465Z,39.60
2023-05-13T13:36:09.244Z,39.60
2023-05-13T13:38:35.893Z,39.50
2023-05-13T13:41:02.573Z,39.40
2023-05-13T13:43:29.308Z,39.20
2023-05-13T13:45:56.506Z,39.40
2023-05-13T13:48:23.301Z,39.40
2023-05-13T13:50:52.146Z,39.20
2023-05-13T13:53:20.765Z,39.00
2023-05-13T13:55:47.487Z,39.30
2023-05-13T13:58:15.206Z,39.10
2023-05-13T14:00:41.954Z,39.10
2023-05-13T14:03:08.928Z,39.20
2023-05-13T14:05:37.793Z,39.40
2023-05-13T14:08:07.877Z,39.60
2023-05-13T14:10:38.265Z,39.90
2023-05-13T14:13:08.196Z,39.90
2023-05-13T14:15:35.303Z,39.90
2023-05-13T14:18:08.823Z,39.70
2023-05-13T14:20:36.091Z,39.90
2023-05-13T14:23:03.897Z,40.10
2023-05-13T14:25:32.200Z,40.00
2023-05-13T14:27:58.909Z,40.30
2023-05-13T14:30:29.139Z,40.20
2023-05-13T14:33:03.560Z,40.10
2023-05-13T14:35:30.375Z,39.80
2023-05-13T14:37:57.590Z,39.70
2023-05-13T14:40:24.529Z,38.90
2023-05-13T14:42:51.434Z,39.10
2023-05-13T14:45:18.809Z,39.60
2023-05-13T14:47:46.812Z,39.60
2023-05-13T14:50:14.621Z,39.20
2023-05-13T14:52:42.639Z,39.20
2023-05-13T14:55:10.907Z,39.40
2023-05-13T14:57:38.300Z,39.00
2023-05-13T15:00:08.200Z,39.00
2023-05-13T15:02:35.015Z,38.50
2023-05-13T15:05:01.836Z,38.50
2023-05-13T15:07:30.241Z,38.30
2023-05-13T15:09:56.972Z,38.10
2023-05-13T15:12:23.626Z,38.20
2023-05-13T15:14:56.716Z,38.10
2023-05-13T15:17:23.516Z,38.10
2023-05-13T15:19:50.360Z,38.00
2023-05-13T15:22:18.109Z,38.10
2023-05-13T15:24:44.846Z,38.10
2023-05-13T15:27:16.956Z,38.20
2023-05-13T15:29:45.493Z,38.40
2023-05-13T15:32:13.318Z,37.90
2023-05-13T15:34:40.848Z,37.30
2023-05-13T15:37:18.332Z,37.30
2023-05-13T15:39:51.656Z,37.10
2023-05-13T15:42:20.359Z,37.10
2023-05-13T15:44:47.194Z,37.20
2023-05-13T15:47:16.145Z,38.20
2023-05-13T15:49:43.135Z,39.00
2023-05-13T15:52:11.061Z,39.80
2023-05-13T15:54:39.228Z,40.60
2023-05-13T15:57:07.218Z,41.10
2023-05-13T15:59:35.062Z,41.90
2023-05-13T16:02:03.524Z,42.40
2023-05-13T16:04:31.586Z,43.40
2023-05-13T16:06:58.312Z,43.60
2023-05-13T16:09:24.973Z,44.70
2023-05-13T16:11:51.653Z,45.40
2023-05-13T16:14:19.503Z,46.60
2023-05-13T16:16:46.389Z,47.30
2023-05-13T16:19:13.185Z,48.80
2023-05-13T16:21:42.934Z,51.40
2023-05-13T16:24:09.632Z,52.00
2023-05-13T16:26:36.362Z,51.80
2023-05-13T16:29:03.464Z,51.90
2023-05-13T16:31:30.296Z,52.00
2023-05-13T16:33:57.436Z,51.40
2023-05-13T16:36:24.158Z,51.30
2023-05-13T16:38:50.850Z,51.60
2023-05-13T16:41:17.799Z,53.20
2023-05-13T16:43:45.668Z,52.40
2023-05-13T16:46:12.706Z,51.90
2023-05-13T16:48:39.548Z,51.50
2023-05-13T16:51:06.418Z,51.10
2023-05-13T16:53:33.613Z,50.70
2023-05-13T16:56:00.822Z,50.40
2023-05-13T16:58:27.567Z,50.40
2023-05-13T17:00:55.119Z,50.10
2023-05-13T17:03:23.426Z,50.00
2023-05-13T17:05:50.242Z,50.00
2023-05-13T17:08:18.010Z,50.10
2023-05-13T17:10:44.981Z,49.90
2023-05-13T17:13:12.955Z,49.80
2023-05-13T17:15:39.719Z,49.80
2023-05-13T17:18:07.586Z,49.70
2023-05-13T17:20:35.354Z,49.80
2023-05-13T17:23:06.260Z,49.70
2023-05-13T17:25:37.355Z,49.90
2023-05-13T17:28:15.690Z,50.30
2023-05-13T17:30:43.650Z,50.70
2023-05-13T17:33:14.752Z,51.00
2023-05-13T17:35:43.907Z,51.10
2023-05-13T17:38:13.681Z,51.40
2023-05-13T17:40:42.929Z,52.10
2023-05-13T17:43:15.205Z,51.70
2023-05-13T17:45:43.456Z,51.80
2023-05-13T17:48:11.918Z,51.90
2023-05-13T17:50:42.347Z,51.90
2023-05-13T17:53:11.856Z,52.20
2023-05-13T17:55:40.568Z,52.30
2023-05-13T17:58:09.603Z,52.80
2023-05-13T18:00:38.932Z,52.80
2023-05-13T18:03:08.506Z,52.50
2023-05-13T18:05:35.512Z,52.80
2023-05-13T18:08:04.624Z,52.90
2023-05-13T18:10:34.204Z,53.50
2023-05-13T18:13:03.005Z,53.80
2023-05-13T18:15:37.129Z,53.90
2023-05-13T18:18:04.087Z,54.40
2023-05-13T18:20:34.135Z,54.70
2023-05-13T18:23:02.064Z,54.90
2023-05-13T18:25:29.187Z,54.90
2023-05-13T18:27:55.926Z,55.20
2023-05-13T18:30:25.327Z,55.50
2023-05-13T18:32:53.387Z,55.60
2023-05-13T18:35:21.640Z,55.90
2023-05-13T18:37:50.057Z,56.20
2023-05-13T18:40:19.314Z,56.30
2023-05-13T18:42:45.956Z,56.50
2023-05-13T18:45:12.668Z,56.50
2023-05-13T18:47:39.414Z,57.10
2023-05-13T18:50:06.686Z,56.80
2023-05-13T18:52:33.527Z,56.90
2023-05-13T18:55:03.769Z,57.00
2023-05-13T18:57:30.422Z,57.30
2023-05-13T18:59:57.134Z,57.20
2023-05-13T19:02:24.586Z,57.50
2023-05-13T19:04:51.444Z,57.60
2023-05-13T19:07:19.471Z,57.80
2023-05-13T19:09:46.240Z,57.90
2023-05-13T19:12:14.276Z,57.80
2023-05-13T19:14:41.744Z,58.20
2023-05-13T19:17:09.875Z,58.10
2023-05-13T19:19:36.639Z,58.30
2023-05-13T19:22:07.468Z,58.30
2023-05-13T19:24:38.396Z,58.40
2023-05-13T19:27:08.267Z,59.10
2023-05-13T19:29:35.117Z,59.00
2023-05-13T19:32:05.395Z,58.90
2023-05-13T19:34:32.168Z,59.30
2023-05-13T19:36:58.969Z,59.50
2023-05-13T19:39:25.666Z,59.20
2023-05-13T19:41:52.344Z,59.10
2023-05-13T19:44:19.107Z,59.60
2023-05-13T19:46:45.904Z,59.70
2023-05-13T19:49:12.649Z,59.80
2023-05-13T19:51:39.360Z,59.90
2023-05-13T19:54:06.192Z,60.10
2023-05-13T19:56:32.892Z,60.60
2023-05-13T19:59:00.589Z,60.50
2023-05-13T20:01:30.329Z,60.70
2023-05-13T20:04:01.644Z,61.00
2023-05-13T20:06:30.309Z,61.90
2023-05-13T20:09:01.914Z,61.60
2023-05-13T20:11:28.858Z,61.80
2023-05-13T20:13:55.617Z,61.70
2023-05-13T20:16:22.338Z,61.70
2023-05-13T20:18:49.239Z,61.80
2023-05-13T20:21:17.234Z,62.10
2023-05-13T20:23:44.355Z,62.20
2023-05-13T20:26:11.095Z,62.40
2023-05-13T20:28:37.998Z,62.60
2023-05-13T20:31:04.739Z,62.60
2023-05-13T20:33:31.818Z,62.80
2023-05-13T20:35:58.569Z,62.90
2023-05-13T20:38:28.311Z,63.00
2023-05-13T20:40:55.044Z,63.30
2023-05-13T20:43:21.901Z,63.70
2023-05-13T20:45:48.619Z,63.90
2023-05-13T20:48:15.336Z,63.90
2023-05-13T20:50:42.091Z,64.20
2023-05-13T20:53:09.901Z,64.30
2023-05-13T20:55:38.535Z,64.70
2023-05-13T20:58:05.357Z,65.30
2023-05-13T21:00:32.074Z,65.20
2023-05-13T21:02:59.577Z,65.40
2023-05-13T21:05:26.639Z,65.30
2023-05-13T21:07:53.410Z,65.20
2023-05-13T21:10:20.382Z,65.50
2023-05-13T21:12:47.171Z,65.70
2023-05-13T21:15:14.559Z,65.80
2023-05-13T21:17:41.399Z,65.70
2023-05-13T21:20:11.102Z,66.50
2023-05-13T21:22:38.698Z,66.80
2023-05-13T21:25:06.147Z,67.10
2023-05-13T21:27:34.274Z,67.20
2023-05-13T21:30:01.006Z,67.20
2023-05-13T21:32:27.850Z,66.90
2023-05-13T21:34:55.736Z,67.50
2023-05-13T21:37:22.914Z,67.50
2023-05-13T21:39:49.641Z,67.40
2023-05-13T21:42:16.585Z,67.60
2023-05-13T21:44:43.436Z,67.70
2023-05-13T21:47:10.192Z,68.10
2023-05-13T21:49:36.990Z,68.20
2023-05-13T21:52:03.804Z,68.20
2023-05-13T21:54:30.499Z,68.50
2023-05-13T21:56:57.182Z,68.50
2023-05-13T21:59:24.168Z,68.90
2023-05-13T22:01:52.071Z,68.90
2023-05-13T22:04:19.447Z,68.90
2023-05-13T22:06:49.859Z,69.20
2023-05-13T22:09:16.618Z,69.50
2023-05-13T22:11:43.856Z,69.30
2023-05-13T22:14:10.620Z,69.20
2023-05-13T22:16:37.442Z,69.90
2023-05-13T22:19:04.308Z,70.30
2023-05-13T22:21:31.402Z,69.80
2023-05-13T22:23:58.202Z,70.30
2023-05-13T22:26:24.883Z,70.40
2023-05-13T22:28:51.839Z,70.70
2023-05-13T22:31:19.879Z,71.20
2023-05-13T22:33:46.992Z,70.90
2023-05-13T22:36:14.976Z,71.30
2023-05-13T22:38:43.001Z,71.20
2023-05-13T22:41:10.854Z,71.00
2023-05-13T22:43:39.059Z,71.20
2023-05-13T22:46:07.183Z,71.20
2023-05-13T22:48:35.431Z,71.40
2023-05-13T22:51:02.202Z,71.70
2023-05-13T22:53:28.896Z,71.80
2023-05-13T22:55:55.577Z,71.90
2023-05-13T22:58:22.600Z,72.10
2023-05-13T23:00:49.634Z,72.20
2023-05-13T23:03:16.308Z,71.70
2023-05-13T23:05:43.153Z,71.80
2023-05-13T23:08:09.921Z,71.90
2023-05-13T23:10:36.763Z,71.60
2023-05-13T23:13:03.403Z,71.70
2023-05-13T23:15:30.068Z,71.60
2023-05-13T23:17:56.879Z,71.70
2023-05-13T23:20:23.801Z,71.90
2023-05-13T23:22:50.678Z,71.90
2023-05-13T23:25:18.564Z,71.70
2023-05-13T23:27:45.428Z,71.90
2023-05-13T23:30:13.840Z,71.80
2023-05-13T23:32:40.621Z,71.60
2023-05-13T23:35:09.172Z,71.90
2023-05-13T23:37:36.925Z,72.00
2023-05-13T23:40:04.249Z,71.40
2023-05-13T23:42:34.139Z,71.40
2023-05-13T23:45:04.192Z,71.50
2023-05-13T23:47:32.565Z,71.80
2023-05-13T23:50:00.599Z,71.80
2023-05-13T23:52:28.605Z,71.30
2023-05-13T23:54:55.296Z,71.40
2023-05-13T23:57:22.276Z,71.40
2023-05-13T23:59:49.019Z,71.60
